Time;durP1;ratioP1;P1;durP2;ratioP2;P2;SDS_P1;SDS_P2;PMS_P1;PMS_P2;Temp;Humidity;BMP_temperature;BMP_pressure;BME280_temperature;BME280_humidity;BME280_pressure;Samples;Min_cycle;Max_cycle;Signal;HPM_P1;HPM_P2
2024/01/08 00:00:35;;;;;;;;;;;;;;;8.45;90.63;94813.34;5055041;28;19974;-67
2024/01/08 00:03:02;;;;;;;;;;;;;;;8.37;91.29;94812.94;5054839;28;19979;-66
2024/01/08 00:05:30;;;;;;;;;;;;;;;8.25;92.54;94817.09;5054819;28;19924;-65
2024/01/08 00:07:57;;;;;;;;;;;;;;;8.21;92.81;94816.41;5054761;28;20004;-66
2024/01/08 00:10:24;;;;;;;;;;;;;;;8.15;93.47;94817.59;5054595;28;20371;-68
2024/01/08 00:12:51;;;;;;;;;;;;;;;8.15;93.47;94821.97;5054752;28;19960;-67
2024/01/08 00:15:17;;;;;;;;;;;;;;;8.11;93.11;94816.09;5054553;28;19999;-66
2024/01/08 00:17:44;;;;;;;;;;;;;;;8.08;93.82;94816.28;5054418;28;19972;-63
2024/01/08 00:20:11;;;;;;;;;;;;;;;8.04;94.18;94827.78;5054472;28;19920;-65
2024/01/08 00:22:39;;;;;;;;;;;;;;;7.94;93.20;94823.06;5054294;28;19943;-69
2024/01/08 00:25:07;;;;;;;;;;;;;;;7.96;93.73;94825.59;5054288;28;20031;-68
2024/01/08 00:27:33;;;;;;;;;;;;;;;7.92;93.35;94832.72;5054609;28;19979;-70
2024/01/08 00:30:00;;;;;;;;;;;;;;;7.90;93.87;94832.00;5054237;28;20408;-68
2024/01/08 00:32:27;;;;;;;;;;;;;;;7.82;93.62;94837.59;5052998;28;19920;-66
2024/01/08 00:34:54;;;;;;;;;;;;;;;7.78;93.53;94838.69;5054510;28;19962;-65
2024/01/08 00:37:20;;;;;;;;;;;;;;;7.77;94.21;94833.56;5054001;28;19964;-68
2024/01/08 00:39:49;;;;;;;;;;;;;;;7.71;94.03;94837.34;5053966;28;19952;-68
2024/01/08 00:42:15;;;;;;;;;;;;;;;7.76;94.77;94840.53;5053988;28;19924;-70
2024/01/08 00:44:42;;;;;;;;;;;;;;;7.72;95.17;94839.03;5053107;28;20015;-67
2024/01/08 00:47:09;;;;;;;;;;;;;;;7.71;95.23;94840.78;5053868;28;19928;-65
2024/01/08 00:49:35;;;;;;;;;;;;;;;7.68;95.74;94842.72;5053750;28;20356;-68
2024/01/08 00:52:02;;;;;;;;;;;;;;;7.68;96.47;94842.72;5053869;28;19932;-68
2024/01/08 00:54:29;;;;;;;;;;;;;;;7.70;96.69;94841.72;5053621;28;20337;-66
2024/01/08 00:56:57;;;;;;;;;;;;;;;7.74;96.94;94845.00;5053645;28;20012;-69
2024/01/08 00:59:24;;;;;;;;;;;;;;;7.73;96.61;94850.28;5053707;28;20297;-62
2024/01/08 01:01:51;;;;;;;;;;;;;;;7.71;96.93;94847.78;5053683;28;19944;-64
2024/01/08 01:04:18;;;;;;;;;;;;;;;7.67;97.28;94848.84;5053671;28;19920;-66
2024/01/08 01:06:45;;;;;;;;;;;;;;;7.63;96.98;94847.31;5053706;28;19936;-64
2024/01/08 01:09:12;;;;;;;;;;;;;;;7.63;96.97;94855.97;5053414;28;19927;-69
2024/01/08 01:11:38;;;;;;;;;;;;;;;7.69;97.69;94847.00;5053523;28;19929;-68
2024/01/08 01:14:06;;;;;;;;;;;;;;;7.66;97.30;94850.63;5053386;28;19928;-68
2024/01/08 01:16:34;;;;;;;;;;;;;;;7.68;97.78;94846.16;5053417;28;19920;-68
2024/01/08 01:19:01;;;;;;;;;;;;;;;7.62;98.03;94849.09;5053291;28;20472;-67
2024/01/08 01:21:28;;;;;;;;;;;;;;;7.64;98.45;94849.84;5053168;28;20003;-68
2024/01/08 01:23:55;;;;;;;;;;;;;;;7.66;98.58;94854.97;5053375;28;19974;-70
2024/01/08 01:26:22;;;;;;;;;;;;;;;7.63;98.63;94848.16;5053321;28;19921;-67
2024/01/08 01:28:49;;;;;;;;;;;;;;;7.68;98.44;94847.94;5053416;28;19974;-68
2024/01/08 01:31:17;;;;;;;;;;;;;;;7.67;98.21;94844.47;5053468;28;19928;-69
2024/01/08 01:33:43;;;;;;;;;;;;;;;7.71;98.43;94847.78;5053271;28;20393;-64
2024/01/08 01:36:10;;;;;;;;;;;;;;;7.72;97.98;94841.63;5053199;28;19920;-68
2024/01/08 01:38:37;;;;;;;;;;;;;;;7.67;98.29;94838.41;5053252;28;20382;-68
2024/01/08 01:41:03;;;;;;;;;;;;;;;7.62;98.74;94838.69;5053149;28;19927;-62
2024/01/08 01:43:31;;;;;;;;;;;;;;;7.61;99.25;94839.59;5053267;28;19928;-64
2024/01/08 01:45:58;;;;;;;;;;;;;;;7.63;99.32;94836.91;5053173;28;19927;-66
2024/01/08 01:48:27;;;;;;;;;;;;;;;7.57;99.63;94844.13;5053191;28;20344;-67
2024/01/08 01:50:55;;;;;;;;;;;;;;;7.60;100.00;94837.91;5053169;28;19928;-67
2024/01/08 01:53:21;;;;;;;;;;;;;;;7.61;99.33;94836.16;5053205;28;19928;-63
2024/01/08 01:55:48;;;;;;;;;;;;;;;7.56;99.21;94844.22;5054906;28;19921;-62
2024/01/08 01:58:15;;;;;;;;;;;;;;;7.59;99.70;94841.47;5056993;28;20489;-68
2024/01/08 02:00:42;;;;;;;;;;;;;;;7.70;99.24;94843.47;5056981;28;20294;-69
2024/01/08 02:03:09;;;;;;;;;;;;;;;7.68;99.04;94843.53;5056951;28;20015;-65
2024/01/08 02:05:38;;;;;;;;;;;;;;;7.73;98.63;94843.31;5056860;28;20429;-64
2024/01/08 02:08:05;;;;;;;;;;;;;;;7.72;98.14;94846.84;5056907;28;20382;-63
2024/01/08 02:10:32;;;;;;;;;;;;;;;7.76;98.46;94850.94;5056793;28;19921;-66
2024/01/08 02:13:00;;;;;;;;;;;;;;;7.88;98.17;94851.19;5056784;28;19921;-65
2024/01/08 02:15:27;;;;;;;;;;;;;;;7.94;97.46;94849.13;5056736;28;20286;-70
2024/01/08 02:17:55;;;;;;;;;;;;;;;7.99;97.08;94851.47;5056677;28;19964;-64
2024/01/08 02:20:22;;;;;;;;;;;;;;;8.07;96.48;94858.88;5056766;28;19925;-65
2024/01/08 02:22:50;;;;;;;;;;;;;;;8.07;95.90;94854.47;5056390;28;19920;-66
2024/01/08 02:25:17;;;;;;;;;;;;;;;8.12;95.20;94862.03;5056574;28;19920;-69
2024/01/08 02:27:43;;;;;;;;;;;;;;;8.13;95.36;94868.09;5056464;28;19921;-70
2024/01/08 02:30:10;;;;;;;;;;;;;;;8.07;95.18;94861.47;5056352;28;19978;-70
2024/01/08 02:32:37;;;;;;;;;;;;;;;8.12;94.83;94866.44;5056443;28;20008;-66
2024/01/08 02:35:04;;;;;;;;;;;;;;;8.15;94.71;94869.69;5056359;28;19956;-67
2024/01/08 02:37:31;;;;;;;;;;;;;;;8.19;94.56;94872.97;5056192;28;19921;-69
2024/01/08 02:39:59;;;;;;;;;;;;;;;8.21;94.63;94871.09;5056724;28;19978;-64
2024/01/08 02:42:26;;;;;;;;;;;;;;;8.26;93.92;94865.66;5056581;28;19921;-66
2024/01/08 02:44:52;;;;;;;;;;;;;;;8.31;93.41;94881.88;5056072;28;20348;-68
2024/01/08 02:47:19;;;;;;;;;;;;;;;8.33;93.16;94873.03;5056119;28;19927;-64
2024/01/08 02:49:45;;;;;;;;;;;;;;;8.35;93.04;94878.19;5056039;28;19927;-67
2024/01/08 02:52:12;;;;;;;;;;;;;;;8.38;92.95;94877.16;5056071;28;19975;-69
2024/01/08 02:54:39;;;;;;;;;;;;;;;8.33;92.68;94877.41;5055913;28;19920;-68
2024/01/08 02:57:07;;;;;;;;;;;;;;;8.17;93.12;94882.63;5055909;28;19921;-67
2024/01/08 02:59:33;;;;;;;;;;;;;;;8.14;93.83;94881.03;5055948;28;19921;-64
2024/01/08 03:02:00;;;;;;;;;;;;;;;8.14;94.00;94885.41;5055736;28;20569;-68
2024/01/08 03:04:27;;;;;;;;;;;;;;;8.07;94.10;94883.13;5055927;28;19974;-66
2024/01/08 03:06:54;;;;;;;;;;;;;;;8.02;94.38;94886.91;5054914;28;19974;-69
2024/01/08 03:09:21;;;;;;;;;;;;;;;7.95;95.33;94886.41;5055770;28;19921;-65
2024/01/08 03:11:48;;;;;;;;;;;;;;;7.92;96.13;94884.78;5055551;28;19960;-65
2024/01/08 03:14:16;;;;;;;;;;;;;;;7.88;96.56;94890.25;5055528;28;20410;-66
2024/01/08 03:16:42;;;;;;;;;;;;;;;7.83;97.03;94888.75;5055483;28;19960;-64
2024/01/08 03:19:09;;;;;;;;;;;;;;;7.77;97.52;94888.25;5055519;28;20327;-66
2024/01/08 03:21:36;;;;;;;;;;;;;;;7.73;98.19;94889.34;5055334;28;20016;-65
2024/01/08 03:24:03;;;;;;;;;;;;;;;7.66;98.42;94889.66;5055461;28;19920;-64
2024/01/08 03:26:29;;;;;;;;;;;;;;;7.59;99.10;94888.28;5055495;28;19960;-68
2024/01/08 03:28:56;;;;;;;;;;;;;;;7.55;99.65;94887.59;5055252;28;19927;-68
2024/01/08 03:31:24;;;;;;;;;;;;;;;7.43;100.00;94893.44;5055306;28;19976;-66
2024/01/08 03:33:51;;;;;;;;;;;;;;;7.47;100.00;94897.59;5055348;28;19924;-68
2024/01/08 03:36:17;;;;;;;;;;;;;;;7.49;100.00;94897.50;5055049;28;20394;-67
2024/01/08 03:38:44;;;;;;;;;;;;;;;7.49;100.00;94898.31;5055382;28;19925;-65
2024/01/08 03:41:10;;;;;;;;;;;;;;;7.56;100.00;94912.69;5055183;28;20011;-67
2024/01/08 03:43:37;;;;;;;;;;;;;;;7.66;100.00;94922.63;5055033;28;19927;-64
2024/01/08 03:46:04;;;;;;;;;;;;;;;7.73;100.00;94929.19;5055093;28;19920;-64
2024/01/08 03:48:32;;;;;;;;;;;;;;;7.71;100.00;94938.88;5055093;28;19927;-68
2024/01/08 03:50:59;;;;;;;;;;;;;;;7.74;100.00;94937.84;5054949;28;19920;-64
2024/01/08 03:53:25;;;;;;;;;;;;;;;7.79;100.00;94941.03;5054890;28;20021;-65
2024/01/08 03:55:52;;;;;;;;;;;;;;;7.88;100.00;94942.31;5054810;28;20008;-67
2024/01/08 03:58:19;;;;;;;;;;;;;;;7.91;100.00;94940.41;5054740;28;19920;-66
2024/01/08 04:00:45;;;;;;;;;;;;;;;7.92;100.00;94941.25;5055067;28;19947;-66
2024/01/08 04:03:13;;;;;;;;;;;;;;;7.87;100.00;94948.44;5054594;28;20283;-63
2024/01/08 04:05:41;;;;;;;;;;;;;;;7.84;100.00;94946.88;5054572;28;19921;-65
2024/01/08 04:08:08;;;;;;;;;;;;;;;7.83;100.00;94951.22;5054585;28;20435;-66
2024/01/08 04:10:34;;;;;;;;;;;;;;;7.79;100.00;94949.69;5054853;28;20263;-70
2024/01/08 04:13:01;;;;;;;;;;;;;;;7.82;100.00;94949.53;5054517;28;19975;-66
2024/01/08 04:15:28;;;;;;;;;;;;;;;7.81;100.00;94953.06;5054436;28;19924;-67
2024/01/08 04:17:54;;;;;;;;;;;;;;;7.78;100.00;94955.84;5054384;28;19971;-64
2024/01/08 04:20:21;;;;;;;;;;;;;;;7.75;100.00;94952.53;5054543;28;20264;-65
2024/01/08 04:22:50;;;;;;;;;;;;;;;7.77;100.00;94961.94;5054086;28;20381;-62
2024/01/08 04:25:16;;;;;;;;;;;;;;;7.77;100.00;94967.16;5054238;28;19959;-68
2024/01/08 04:27:43;;;;;;;;;;;;;;;7.77;100.00;94972.34;5054241;28;19921;-66
2024/01/08 04:30:10;;;;;;;;;;;;;;;7.83;100.00;94969.44;5054298;28;19974;-68
2024/01/08 04:32:37;;;;;;;;;;;;;;;7.92;99.96;94978.53;5054271;28;19925;-66
2024/01/08 04:35:04;;;;;;;;;;;;;;;7.90;99.23;94983.00;5054075;28;19927;-67
2024/01/08 04:37:31;;;;;;;;;;;;;;;7.87;99.15;94980.53;5054083;28;20370;-68
2024/01/08 04:39:59;;;;;;;;;;;;;;;7.92;99.31;94985.50;5054339;28;19921;-66
2024/01/08 04:42:26;;;;;;;;;;;;;;;7.93;99.40;94989.78;5053922;28;19920;-66
2024/01/08 04:44:53;;;;;;;;;;;;;;;8.03;99.13;94997.94;5053882;28;19921;-64
2024/01/08 04:47:20;;;;;;;;;;;;;;;8.01;99.20;94992.81;5053820;28;19920;-62
2024/01/08 04:49:47;;;;;;;;;;;;;;;8.02;98.91;94988.47;5053860;28;19925;-66
2024/01/08 04:52:14;;;;;;;;;;;;;;;7.96;98.53;94998.28;5053818;28;20424;-67
2024/01/08 04:54:42;;;;;;;;;;;;;;;8.03;98.74;94996.19;5053763;28;19921;-66
2024/01/08 04:57:10;;;;;;;;;;;;;;;8.09;98.23;95001.09;5053721;28;19921;-67
2024/01/08 04:59:39;;;;;;;;;;;;;;;8.11;97.94;95008.81;5053720;28;19974;-69
2024/01/08 05:02:06;;;;;;;;;;;;;;;8.13;97.82;95011.34;5053549;28;19924;-68
2024/01/08 05:04:33;;;;;;;;;;;;;;;8.12;97.94;95015.72;5053629;28;19927;-64
2024/01/08 05:07:00;;;;;;;;;;;;;;;8.16;98.03;95013.78;5053525;28;20394;-69
2024/01/08 05:09:27;;;;;;;;;;;;;;;8.18;97.50;95019.75;5053441;28;20425;-65
2024/01/08 05:11:54;;;;;;;;;;;;;;;8.20;97.31;95021.38;5053626;28;20007;-63
2024/01/08 05:14:22;;;;;;;;;;;;;;;8.19;96.78;95024.88;5053498;28;20012;-68
2024/01/08 05:16:49;;;;;;;;;;;;;;;8.15;96.46;95033.78;5053383;28;20386;-67
2024/01/08 05:19:16;;;;;;;;;;;;;;;8.04;96.90;95026.53;5053439;28;19920;-66
2024/01/08 05:21:44;;;;;;;;;;;;;;;8.05;96.82;95038.63;5053403;28;19924;-68
2024/01/08 05:24:11;;;;;;;;;;;;;;;8.07;96.92;95036.78;5053742;28;19939;-63
2024/01/08 05:26:37;;;;;;;;;;;;;;;8.07;96.55;95047.19;5053339;28;19939;-67
2024/01/08 05:29:04;;;;;;;;;;;;;;;8.06;96.54;95050.72;5053250;28;19921;-66
2024/01/08 05:31:32;;;;;;;;;;;;;;;8.00;96.47;95050.22;5057991;28;19928;-65
2024/01/08 05:33:59;;;;;;;;;;;;;;;7.92;96.98;95054.03;5060015;28;20008;-66
2024/01/08 05:36:26;;;;;;;;;;;;;;;7.79;98.10;95059.03;5059972;28;19920;-67
2024/01/08 05:38:53;;;;;;;;;;;;;;;7.60;99.51;95061.72;5059665;28;19925;-67
2024/01/08 05:41:20;;;;;;;;;;;;;;;7.55;100.00;95067.16;5060203;28;19947;-64
2024/01/08 05:43:47;;;;;;;;;;;;;;;7.49;100.00;95061.41;5059884;28;20007;-65
2024/01/08 05:46:14;;;;;;;;;;;;;;;7.45;100.00;95068.53;5059923;28;19925;-67
2024/01/08 05:48:42;;;;;;;;;;;;;;;7.28;100.00;95075.38;5059841;28;19976;-65
2024/01/08 05:51:09;;;;;;;;;;;;;;;7.29;100.00;95079.66;5059864;28;19974;-68
2024/01/08 05:53:36;;;;;;;;;;;;;;;7.28;100.00;95082.34;5059751;28;19920;-66
2024/01/08 05:56:03;;;;;;;;;;;;;;;7.32;100.00;95082.13;5059824;28;19971;-67
2024/01/08 05:58:32;;;;;;;;;;;;;;;7.37;100.00;95088.88;5059644;28;20003;-65
2024/01/08 06:00:59;;;;;;;;;;;;;;;7.35;100.00;95094.16;5059730;28;19920;-69
2024/01/08 06:03:25;;;;;;;;;;;;;;;7.29;100.00;95090.06;5059790;28;20333;-64
2024/01/08 06:05:53;;;;;;;;;;;;;;;7.27;100.00;95097.13;5059605;28;19927;-69
2024/01/08 06:08:20;;;;;;;;;;;;;;;7.32;100.00;95097.72;5059769;28;19927;-64
2024/01/08 06:10:48;;;;;;;;;;;;;;;7.35;100.00;95103.72;5059723;28;19927;-67
2024/01/08 06:13:15;;;;;;;;;;;;;;;7.38;100.00;95104.41;5059763;28;20011;-66
2024/01/08 06:15:42;;;;;;;;;;;;;;;7.46;100.00;95111.81;5059498;28;20342;-66
2024/01/08 06:18:09;;;;;;;;;;;;;;;7.48;100.00;95117.81;5059392;28;19951;-68
2024/01/08 06:20:35;;;;;;;;;;;;;;;7.43;100.00;95115.44;5059861;28;19954;-64
2024/01/08 06:23:04;;;;;;;;;;;;;;;7.45;100.00;95125.75;5059541;28;20120;-63
2024/01/08 06:25:30;;;;;;;;;;;;;;;7.48;100.00;95128.22;5059577;28;20286;-67
2024/01/08 06:27:57;;;;;;;;;;;;;;;7.50;100.00;95126.41;5059527;28;20345;-67
2024/01/08 06:30:25;;;;;;;;;;;;;;;7.50;100.00;95126.41;5059636;28;19982;-65
2024/01/08 06:32:52;;;;;;;;;;;;;;;7.57;100.00;95134.72;5059446;28;20298;-66
2024/01/08 06:35:19;;;;;;;;;;;;;;;7.59;100.00;95140.72;5059832;28;19997;-68
2024/01/08 06:37:46;;;;;;;;;;;;;;;7.63;100.00;95142.25;5059333;28;19925;-66
2024/01/08 06:40:14;;;;;;;;;;;;;;;7.61;99.81;95146.66;5059495;28;20294;-64
2024/01/08 06:42:42;;;;;;;;;;;;;;;7.67;99.59;95154.19;5055629;28;19944;-64
2024/01/08 06:45:10;;;;;;;;;;;;;;;7.73;99.12;95153.03;5056113;28;19920;-66
2024/01/08 06:47:37;;;;;;;;;;;;;;;7.68;98.70;95161.06;5056139;28;19920;-66
2024/01/08 06:50:05;;;;;;;;;;;;;;;7.73;98.74;95167.84;5056072;28;19921;-67
2024/01/08 06:52:32;;;;;;;;;;;;;;;7.78;98.59;95171.91;5056074;28;19920;-66
2024/01/08 06:54:59;;;;;;;;;;;;;;;7.85;98.29;95180.22;5055978;28;19974;-68
2024/01/08 06:57:27;;;;;;;;;;;;;;;7.90;98.34;95185.22;5055838;28;19990;-62
2024/01/08 06:59:54;;;;;;;;;;;;;;;7.96;97.88;95188.38;5056006;28;19921;-65
2024/01/08 07:02:20;;;;;;;;;;;;;;;8.03;97.59;95198.47;5055903;28;19928;-68
2024/01/08 07:04:47;;;;;;;;;;;;;;;8.09;97.28;95206.00;5055811;28;20346;-66
2024/01/08 07:07:14;;;;;;;;;;;;;;;8.12;97.20;95207.63;5055716;28;19925;-67
2024/01/08 07:09:40;;;;;;;;;;;;;;;8.14;97.23;95219.63;5055647;28;19966;-66
2024/01/08 07:12:08;;;;;;;;;;;;;;;8.19;96.90;95217.63;5055615;28;20299;-66
2024/01/08 07:15:05;;;;;;;;;;;;;;;8.22;96.57;95225.28;5055843;28;19928;-69
2024/01/08 07:17:32;;;;;;;;;;;;;;;8.22;96.51;95227.09;5033542;28;19925;-66
2024/01/08 07:19:59;;;;;;;;;;;;;;;8.26;96.60;95232.97;5033526;28;20364;-67
2024/01/08 07:22:25;;;;;;;;;;;;;;;8.29;96.59;95233.66;5033406;28;19928;-68
2024/01/08 07:24:52;;;;;;;;;;;;;;;8.31;96.39;95238.81;5033517;28;19990;-64
2024/01/08 07:27:21;;;;;;;;;;;;;;;8.34;96.42;95242.09;5033438;28;20480;-66
2024/01/08 07:29:49;;;;;;;;;;;;;;;8.39;96.22;95247.06;5033286;28;19925;-65
2024/01/08 07:32:16;;;;;;;;;;;;;;;8.39;94.94;95254.88;5033415;28;20359;-69
2024/01/08 07:34:42;;;;;;;;;;;;;;;8.37;95.06;95255.88;5036972;28;19960;-66
2024/01/08 07:52:25;;;;;;;;;;;;;;;8.12;94.42;95277.94;5055333;28;19924;-68
2024/01/08 07:54:51;;;;;;;;;;;;;;;7.97;94.09;95281.19;5054913;28;20014;-66
2024/01/08 07:57:18;;;;;;;;;;;;;;;8.01;94.69;95292.28;5054842;28;19963;-65
2024/01/08 07:59:45;;;;;;;;;;;;;;;7.96;94.28;95289.09;5054760;28;19925;-65
2024/01/08 08:02:11;;;;;;;;;;;;;;;7.93;94.24;95291.81;5054696;28;20106;-65
2024/01/08 08:04:38;;;;;;;;;;;;;;;7.92;95.22;95290.97;5054668;28;19921;-66
2024/01/08 08:07:05;;;;;;;;;;;;;;;7.91;95.03;95296.25;5054629;28;19999;-66
2024/01/08 08:09:33;;;;;;;;;;;;;;;7.87;95.27;95294.72;5054559;28;19920;-69
2024/01/08 08:12:00;;;;;;;;;;;;;;;7.85;95.35;95302.59;5054675;28;19927;-65
2024/01/08 08:14:27;;;;;;;;;;;;;;;7.75;95.07;95307.41;5054469;28;19929;-66
2024/01/08 08:16:54;;;;;;;;;;;;;;;7.70;95.71;95312.81;5054335;28;19921;-67
2024/01/08 08:19:21;;;;;;;;;;;;;;;7.76;96.16;95321.25;5054451;28;20452;-65
2024/01/08 08:21:47;;;;;;;;;;;;;;;7.71;95.64;95309.28;5054164;28;20003;-69
2024/01/08 08:24:14;;;;;;;;;;;;;;;7.73;96.03;95322.25;5054256;28;20011;-66
2024/01/08 08:26:42;;;;;;;;;;;;;;;7.69;95.60;95324.16;5054278;28;19928;-66
2024/01/08 08:29:11;;;;;;;;;;;;;;;7.72;95.87;95320.56;5054166;28;20011;-65
2024/01/08 08:31:38;;;;;;;;;;;;;;;7.73;95.41;95318.81;5054042;28;19920;-68
2024/01/08 08:34:04;;;;;;;;;;;;;;;7.71;95.92;95329.28;5054267;28;19920;-64
2024/01/08 08:36:31;;;;;;;;;;;;;;;7.64;95.75;95331.31;5054061;28;20379;-70
2024/01/08 08:38:58;;;;;;;;;;;;;;;7.67;95.78;95332.94;5053835;28;20383;-64
2024/01/08 08:41:24;;;;;;;;;;;;;;;7.73;95.20;95332.66;5054334;28;20047;-68
2024/01/08 08:43:54;;;;;;;;;;;;;;;7.74;95.29;95349.13;5054020;28;19928;-67
2024/01/08 08:46:21;;;;;;;;;;;;;;;7.77;94.95;95349.81;5054235;28;19928;-66
2024/01/08 08:48:48;;;;;;;;;;;;;;;7.80;94.77;95354.06;5054097;28;19925;-65
2024/01/08 08:51:15;;;;;;;;;;;;;;;7.81;94.18;95361.78;5054384;28;19920;-65
2024/01/08 08:53:41;;;;;;;;;;;;;;;7.81;93.38;95358.34;5053917;28;20123;-68
2024/01/08 08:56:10;;;;;;;;;;;;;;;7.82;93.23;95366.06;5054009;28;20282;-65
2024/01/08 08:58:37;;;;;;;;;;;;;;;7.86;93.94;95368.53;5053834;28;20042;-67
2024/01/08 09:01:06;;;;;;;;;;;;;;;7.84;93.56;95366.88;5053842;28;19921;-65
2024/01/08 09:03:33;;;;;;;;;;;;;;;7.86;92.37;95371.16;5053872;28;19921;-66
2024/01/08 09:06:00;;;;;;;;;;;;;;;7.86;91.26;95373.75;5053036;28;19921;-67
2024/01/08 09:08:27;;;;;;;;;;;;;;;7.93;91.87;95373.41;5053775;28;20019;-68
2024/01/08 09:10:53;;;;;;;;;;;;;;;8.04;92.73;95379.88;5053628;28;19920;-67
2024/01/08 09:13:20;;;;;;;;;;;;;;;8.06;92.63;95376.28;5053533;28;20019;-65
2024/01/08 09:15:47;;;;;;;;;;;;;;;8.16;92.14;95376.69;5053548;28;20374;-68
2024/01/08 09:18:15;;;;;;;;;;;;;;;8.26;91.93;95381.47;5053837;28;19921;-69
2024/01/08 09:20:42;;;;;;;;;;;;;;;8.34;92.27;95377.56;5053480;28;20003;-67
2024/01/08 09:23:09;;;;;;;;;;;;;;;8.46;92.12;95380.53;5053761;28;19928;-65
2024/01/08 09:25:37;;;;;;;;;;;;;;;8.54;91.67;95378.41;5053727;28;20329;-67
2024/01/08 09:28:04;;;;;;;;;;;;;;;8.63;90.64;95386.69;5053544;28;19936;-68
2024/01/08 09:30:31;;;;;;;;;;;;;;;8.67;89.88;95377.81;5053319;28;20640;-69
2024/01/08 09:32:57;;;;;;;;;;;;;;;8.71;91.24;95384.56;5053395;28;19995;-65
2024/01/08 09:35:26;;;;;;;;;;;;;;;8.73;92.38;95393.16;5053345;28;19920;-70
2024/01/08 09:37:53;;;;;;;;;;;;;;;8.75;90.86;95388.72;5053382;28;19921;-66
2024/01/08 09:40:19;;;;;;;;;;;;;;;8.78;90.02;95392.91;5053443;28;19928;-67
2024/01/08 09:42:46;;;;;;;;;;;;;;;8.79;89.51;95408.50;5053421;28;19943;-63
2024/01/08 09:45:13;;;;;;;;;;;;;;;8.81;90.34;95400.59;5053288;28;19920;-68
2024/01/08 09:47:41;;;;;;;;;;;;;;;8.77;91.24;95407.75;5053319;28;20271;-68
2024/01/08 09:50:09;;;;;;;;;;;;;;;8.80;91.27;95409.34;5053289;28;20329;-64
2024/01/08 09:52:39;;;;;;;;;;;;;;;8.79;91.52;95412.88;5053302;28;19928;-68
2024/01/08 09:55:06;;;;;;;;;;;;;;;8.83;91.47;95409.19;5053088;28;19927;-68
2024/01/08 09:57:33;;;;;;;;;;;;;;;8.85;91.84;95413.41;5053166;28;19983;-66
2024/01/08 10:00:00;;;;;;;;;;;;;;;8.86;91.96;95409.06;5053068;28;19920;-69
2024/01/08 10:02:26;;;;;;;;;;;;;;;8.84;91.51;95416.09;5053486;28;19951;-68
2024/01/08 10:04:54;;;;;;;;;;;;;;;8.82;91.49;95421.38;5053171;28;20294;-68
2024/01/08 10:07:20;;;;;;;;;;;;;;;8.88;91.22;95406.38;5053366;28;19959;-66
2024/01/08 10:09:48;;;;;;;;;;;;;;;8.92;91.08;95415.72;5053141;28;19924;-67
2024/01/08 10:12:15;;;;;;;;;;;;;;;8.90;91.08;95410.59;5052946;28;19968;-70
2024/01/08 10:14:42;;;;;;;;;;;;;;;8.89;91.41;95421.09;5052886;28;19975;-64
2024/01/08 10:17:09;;;;;;;;;;;;;;;8.88;90.69;95427.22;5055099;28;19956;-66
2024/01/08 10:19:35;;;;;;;;;;;;;;;8.88;91.22;95424.63;5056545;28;20030;-68
2024/01/08 10:22:09;;;;;;;;;;;;;;;8.89;89.96;95431.53;5056430;28;19924;-67
2024/01/08 10:24:36;;;;;;;;;;;;;;;8.84;90.05;95431.75;5056653;28;19943;-67
2024/01/08 10:27:04;;;;;;;;;;;;;;;8.83;90.77;95428.31;5056476;28;19925;-64
2024/01/08 10:29:31;;;;;;;;;;;;;;;8.82;90.83;95429.22;5056521;28;19927;-69
2024/01/08 10:31:58;;;;;;;;;;;;;;;8.76;91.77;95432.09;5056398;28;19924;-67
2024/01/08 10:34:25;;;;;;;;;;;;;;;8.81;91.84;95431.88;5056416;28;19924;-66
2024/01/08 10:36:52;;;;;;;;;;;;;;;8.82;91.10;95436.19;5056359;28;19928;-67
2024/01/08 10:39:20;;;;;;;;;;;;;;;8.80;91.06;95441.50;5056360;28;19921;-67
2024/01/08 10:41:47;;;;;;;;;;;;;;;8.84;90.88;95437.81;5056359;28;20033;-66
2024/01/08 10:44:15;;;;;;;;;;;;;;;8.88;91.31;95440.28;5056320;28;19921;-66
2024/01/08 10:46:46;;;;;;;;;;;;;;;8.86;91.29;95437.75;5056321;28;20306;-66
2024/01/08 10:49:16;;;;;;;;;;;;;;;8.84;91.22;95442.16;5056183;28;19943;-66
2024/01/08 10:51:44;;;;;;;;;;;;;;;8.85;91.20;95443.84;5056107;28;19921;-66
2024/01/08 10:54:13;;;;;;;;;;;;;;;8.88;91.38;95442.88;5056064;28;19952;-65
2024/01/08 10:56:40;;;;;;;;;;;;;;;8.92;91.50;95447.88;5056232;28;20003;-67
2024/01/08 10:59:08;;;;;;;;;;;;;;;8.97;91.46;95450.22;5055868;28;19999;-64
2024/01/08 11:01:36;;;;;;;;;;;;;;;9.01;91.33;95449.19;5055894;28;19943;-67
2024/01/08 11:04:04;;;;;;;;;;;;;;;8.92;90.90;95442.66;5055869;28;20003;-68
2024/01/08 11:06:31;;;;;;;;;;;;;;;8.85;91.57;95447.31;5055801;28;19925;-67
2024/01/08 11:08:57;;;;;;;;;;;;;;;8.85;91.31;95455.13;5055809;28;19928;-65
2024/01/08 11:11:24;;;;;;;;;;;;;;;8.90;90.45;95457.53;5055737;28;20341;-67
2024/01/08 11:13:51;;;;;;;;;;;;;;;8.92;90.93;95460.06;5055712;28;20003;-66
2024/01/08 11:16:20;;;;;;;;;;;;;;;8.91;91.16;95453.16;5055800;28;20042;-65
2024/01/08 11:18:48;;;;;;;;;;;;;;;8.92;89.76;95454.84;5055517;28;19928;-64
2024/01/08 11:21:24;;;;;;;;;;;;;;;8.91;88.30;95461.00;5055306;28;19942;-69
2024/01/08 11:23:50;;;;;;;;;;;;;;;8.83;84.98;95461.34;5055539;28;20016;-68
2024/01/08 11:26:20;;;;;;;;;;;;;;;8.87;83.92;95462.88;5055438;28;19920;-67
2024/01/08 11:29:01;;;;;;;;;;;;;;;8.87;83.70;95469.84;5054746;28;20382;-63
2024/01/08 11:31:43;;;;;;;;;;;;;;;8.66;82.34;95459.53;5055455;28;19960;-65
2024/01/08 11:34:31;;;;;;;;;;;;;;;8.72;83.19;95464.47;5055396;28;19928;-68
2024/01/08 11:37:07;;;;;;;;;;;;;;;8.62;84.02;95465.81;5055209;28;20480;-65
2024/01/08 11:39:39;;;;;;;;;;;;;;;8.65;84.72;95478.72;5055138;28;19966;-67
2024/01/08 11:42:06;;;;;;;;;;;;;;;8.69;83.43;95478.50;5055083;28;20616;-66
2024/01/08 11:44:33;;;;;;;;;;;;;;;8.71;84.15;95481.91;5055072;28;19968;-63
2024/01/08 11:47:00;;;;;;;;;;;;;;;8.75;84.40;95487.78;5055093;28;19928;-66
2024/01/08 11:49:28;;;;;;;;;;;;;;;8.68;85.91;95491.63;5054956;28;20271;-64
2024/01/08 11:51:57;;;;;;;;;;;;;;;8.61;85.88;95491.03;5055065;28;19963;-67
2024/01/08 11:54:23;;;;;;;;;;;;;;;8.49;83.32;95496.81;5055073;28;19975;-66
2024/01/08 11:56:50;;;;;;;;;;;;;;;8.47;83.11;95495.13;5054984;28;20007;-67
2024/01/08 11:59:29;;;;;;;;;;;;;;;8.47;83.27;95497.75;5054740;28;19978;-65
2024/01/08 12:01:56;;;;;;;;;;;;;;;8.47;84.26;95502.94;5054857;28;19927;-64
2024/01/08 12:04:23;;;;;;;;;;;;;;;8.46;84.08;95503.03;5054779;28;19963;-64
2024/01/08 12:06:54;;;;;;;;;;;;;;;8.42;84.12;95501.44;5054722;28;19921;-70
2024/01/08 12:09:21;;;;;;;;;;;;;;;8.41;84.61;95502.38;5054644;28;20390;-66
2024/01/08 12:11:48;;;;;;;;;;;;;;;8.42;84.90;95511.88;5054574;28;20035;-65
2024/01/08 12:14:15;;;;;;;;;;;;;;;8.45;85.20;95507.38;5054521;28;19921;-63
2024/01/08 12:16:41;;;;;;;;;;;;;;;8.50;85.18;95508.91;5054417;28;20378;-68
2024/01/08 12:19:12;;;;;;;;;;;;;;;8.50;85.49;95508.91;5054498;28;19920;-64
2024/01/08 12:21:39;;;;;;;;;;;;;;;8.50;85.49;95512.38;5054283;28;19932;-68
2024/01/08 12:24:07;;;;;;;;;;;;;;;8.48;85.42;95516.81;5054371;28;19925;-67
2024/01/08 12:26:34;;;;;;;;;;;;;;;8.46;85.85;95516.06;5054330;28;19928;-66
2024/01/08 12:29:01;;;;;;;;;;;;;;;8.45;86.18;95524.75;5054331;28;19921;-68
2024/01/08 12:31:32;;;;;;;;;;;;;;;8.43;86.60;95522.22;5054348;28;19972;-66
2024/01/08 12:33:59;;;;;;;;;;;;;;;8.38;87.09;95525.97;5054208;28;20007;-66
2024/01/08 12:36:26;;;;;;;;;;;;;;;8.38;87.14;95529.44;5054227;28;19920;-69
2024/01/08 12:38:53;;;;;;;;;;;;;;;8.35;87.81;95532.16;5053930;28;20334;-67
2024/01/08 12:41:21;;;;;;;;;;;;;;;8.31;88.07;95530.63;5053173;28;19921;-66
2024/01/08 12:43:48;;;;;;;;;;;;;;;8.31;87.98;95538.44;5053969;28;20003;-68
2024/01/08 12:46:15;;;;;;;;;;;;;;;8.30;88.37;95540.19;5053858;28;19921;-67
2024/01/08 12:48:42;;;;;;;;;;;;;;;8.34;87.93;95549.56;5053964;28;20011;-66
2024/01/08 12:51:09;;;;;;;;;;;;;;;8.33;88.11;95545.25;5053943;28;19924;-64
2024/01/08 12:53:36;;;;;;;;;;;;;;;8.39;88.03;95549.34;5053813;28;20367;-66
2024/01/08 12:56:03;;;;;;;;;;;;;;;8.42;87.98;95557.03;5053729;28;19921;-64
2024/01/08 12:58:31;;;;;;;;;;;;;;;8.45;87.97;95567.31;5053688;28;20011;-69
2024/01/08 13:00:58;;;;;;;;;;;;;;;8.42;86.58;95557.03;5053617;28;19928;-69
2024/01/08 13:03:25;;;;;;;;;;;;;;;8.38;86.72;95567.66;5053792;28;20370;-67
2024/01/08 13:05:51;;;;;;;;;;;;;;;8.30;87.38;95568.00;5053735;28;19974;-66
2024/01/08 13:08:18;;;;;;;;;;;;;;;8.27;87.91;95570.72;5053617;28;20003;-69
2024/01/08 13:10:45;;;;;;;;;;;;;;;8.18;88.13;95575.44;5053690;28;19921;-68